Huber Heights, Ohio
Current Conditions -  °F | °C
As of 5:58 PM on Wednesday 26 Nov 2014 (Local Time) from KFFO Reporting Station
Overcast Overcast  
Wind Chill: 26°   Ceiling: 2500
Heat Index: 33°   Visibility: 10mi
Dew Point: 26°   Wind: 7mph
Humidity: 75%   Direction: 340°NNW
Pressure: 30.05"   Gusts: NA
Location:  39.8476°N, 84.1086°W
Report Text: KFFO 262258Z 34006KT 10SM OVC025 00/M04 A3005 RMK AO2A SLP188 T00041036
Loading
Personal Weather Stations






























Interactive Weather Map New forecast layout! Learn more

10-Day Weather Forecast

Advertisements
Track Severe Weather on mobile